createdAt,value
2017-08-19T00:00:25.286Z,0
2017-08-19T00:01:26.709Z,0
2017-08-19T00:02:28.136Z,0
2017-08-19T00:03:29.563Z,0
2017-08-19T00:04:30.988Z,0
2017-08-19T00:05:32.414Z,0
2017-08-19T00:06:33.841Z,0
2017-08-19T00:07:35.262Z,0
2017-08-19T00:08:36.686Z,0
2017-08-19T00:09:38.116Z,0
2017-08-19T00:10:39.541Z,0
2017-08-19T00:11:40.966Z,0
2017-08-19T00:12:42.390Z,0
2017-08-19T00:13:43.812Z,0
2017-08-19T00:14:45.240Z,0
2017-08-19T00:15:46.671Z,0
2017-08-19T00:16:48.095Z,0
2017-08-19T00:17:49.517Z,0
2017-08-19T00:18:50.940Z,0
2017-08-19T00:19:52.383Z,0
2017-08-19T00:20:53.806Z,0
2017-08-19T00:21:55.233Z,0
2017-08-19T00:22:56.656Z,0
2017-08-19T00:23:58.081Z,0
2017-08-19T00:24:59.509Z,0
2017-08-19T00:26:00.952Z,0
2017-08-19T00:27:02.379Z,0
2017-08-19T00:28:03.808Z,0
2017-08-19T00:29:05.226Z,0
2017-08-19T00:30:06.655Z,0
2017-08-19T00:31:08.080Z,0
2017-08-19T00:32:09.503Z,0
2017-08-19T00:33:10.962Z,0
2017-08-19T00:34:12.386Z,0
2017-08-19T00:35:13.811Z,0
2017-08-19T00:36:15.239Z,0
2017-08-19T00:37:16.664Z,0
2017-08-19T00:38:18.088Z,0
2017-08-19T00:39:19.513Z,0
2017-08-19T00:40:20.936Z,0
2017-08-19T00:41:22.363Z,0
2017-08-19T00:42:23.792Z,0
2017-08-19T00:43:25.214Z,0
2017-08-19T00:44:26.637Z,0
2017-08-19T00:45:28.062Z,0
2017-08-19T00:46:29.486Z,0
2017-08-19T00:47:30.912Z,0
2017-08-19T00:48:32.338Z,0
2017-08-19T00:49:33.762Z,0
2017-08-19T00:50:35.187Z,0
2017-08-19T00:51:36.611Z,0
2017-08-19T00:52:38.035Z,0
2017-08-19T00:53:39.463Z,0
2017-08-19T00:54:40.885Z,0
2017-08-19T00:55:42.310Z,0
2017-08-19T00:56:43.737Z,0
2017-08-19T00:57:45.160Z,0
2017-08-19T00:58:46.584Z,0
2017-08-19T00:59:48.010Z,0
2017-08-19T01:00:49.436Z,0
2017-08-19T01:01:50.860Z,0
2017-08-19T01:02:52.286Z,0
2017-08-19T01:03:53.710Z,0
2017-08-19T01:04:55.136Z,0
2017-08-19T01:05:56.560Z,0
2017-08-19T01:06:57.986Z,0
2017-08-19T01:07:59.410Z,0
2017-08-19T01:09:00.835Z,0
2017-08-19T01:10:02.259Z,0
2017-08-19T01:11:03.683Z,0
2017-08-19T01:12:05.112Z,0
2017-08-19T01:13:06.535Z,0
2017-08-19T01:14:07.961Z,0
2017-08-19T01:15:09.386Z,0
2017-08-19T01:16:10.810Z,0
2017-08-19T01:17:12.236Z,0
2017-08-19T01:18:13.662Z,0
2017-08-19T01:19:15.088Z,0
2017-08-19T01:20:16.522Z,0
2017-08-19T01:21:17.946Z,0
2017-08-19T01:22:19.373Z,0
2017-08-19T01:23:20.800Z,0
2017-08-19T01:24:22.222Z,0
2017-08-19T01:25:23.650Z,0
2017-08-19T01:26:25.068Z,0
2017-08-19T01:27:26.492Z,0
2017-08-19T01:28:27.918Z,0
2017-08-19T01:29:29.345Z,0
2017-08-19T01:30:30.767Z,0
2017-08-19T01:31:32.198Z,0
2017-08-19T01:32:33.617Z,0
2017-08-19T01:33:35.039Z,0
2017-08-19T01:34:36.464Z,0
2017-08-19T01:35:37.890Z,0
2017-08-19T01:36:39.319Z,0
2017-08-19T01:37:40.744Z,0
2017-08-19T01:38:42.169Z,0
2017-08-19T01:39:43.594Z,0
2017-08-19T01:40:45.016Z,0
2017-08-19T01:41:46.446Z,0
2017-08-19T01:42:47.870Z,0
2017-08-19T01:43:49.295Z,0
2017-08-19T01:44:50.720Z,0
2017-08-19T01:45:52.143Z,0
2017-08-19T01:46:53.567Z,0
2017-08-19T01:47:54.995Z,0
2017-08-19T01:48:56.421Z,0
2017-08-19T01:49:57.846Z,0
2017-08-19T01:50:59.269Z,0
2017-08-19T01:52:00.693Z,0
2017-08-19T01:53:02.119Z,0
2017-08-19T01:54:03.542Z,0
2017-08-19T01:55:04.965Z,0
2017-08-19T01:56:06.391Z,0
2017-08-19T01:57:07.814Z,0
2017-08-19T01:58:09.239Z,0
2017-08-19T01:59:10.669Z,0
2017-08-19T02:00:12.091Z,0
2017-08-19T02:01:13.517Z,0
2017-08-19T02:02:14.941Z,0
2017-08-19T02:03:16.368Z,0
2017-08-19T02:04:17.841Z,0
2017-08-19T02:05:19.264Z,0
2017-08-19T02:06:20.688Z,0
2017-08-19T02:07:22.118Z,0
2017-08-19T02:08:23.536Z,0
2017-08-19T02:09:24.961Z,0
2017-08-19T02:10:26.386Z,0
2017-08-19T02:11:27.817Z,0
2017-08-19T02:12:29.243Z,0
2017-08-19T02:13:30.667Z,0
2017-08-19T02:14:32.092Z,0
2017-08-19T02:15:33.515Z,0
2017-08-19T02:16:34.941Z,0
2017-08-19T02:17:36.371Z,0
2017-08-19T02:18:37.789Z,0
2017-08-19T02:19:39.214Z,0
2017-08-19T02:20:40.637Z,0
2017-08-19T02:21:42.060Z,0
2017-08-19T02:22:43.485Z,0
2017-08-19T02:23:44.912Z,0
2017-08-19T02:24:46.337Z,0
2017-08-19T02:25:47.761Z,0
2017-08-19T02:26:49.184Z,0
2017-08-19T02:27:50.608Z,0
2017-08-19T02:28:52.036Z,0
2017-08-19T02:29:53.462Z,0
2017-08-19T02:30:54.888Z,0
2017-08-19T02:31:56.313Z,0
2017-08-19T02:32:57.737Z,0
2017-08-19T02:33:59.164Z,0
2017-08-19T02:35:00.589Z,0
2017-08-19T02:36:02.014Z,0
2017-08-19T02:37:03.434Z,0
2017-08-19T02:38:04.863Z,0
2017-08-19T02:39:06.286Z,0
2017-08-19T02:40:07.713Z,0
2017-08-19T02:41:09.148Z,0
2017-08-19T02:42:10.572Z,0
2017-08-19T02:43:11.999Z,0
2017-08-19T02:44:13.422Z,0
2017-08-19T02:45:14.852Z,0
2017-08-19T02:46:16.274Z,0
2017-08-19T02:47:17.700Z,0
2017-08-19T02:48:19.123Z,0
2017-08-19T02:49:20.546Z,0
2017-08-19T02:50:21.971Z,0
2017-08-19T02:51:23.407Z,0
2017-08-19T02:52:24.824Z,0
2017-08-19T02:53:26.244Z,0
2017-08-19T02:54:27.667Z,0
2017-08-19T02:55:29.091Z,0
2017-08-19T02:56:30.520Z,0
2017-08-19T02:57:31.943Z,0
2017-08-19T02:58:33.371Z,0
2017-08-19T02:59:34.792Z,0
2017-08-19T03:00:36.216Z,0
2017-08-19T03:01:37.641Z,0
2017-08-19T03:02:39.064Z,0
2017-08-19T03:03:40.486Z,0
2017-08-19T03:04:41.915Z,0
2017-08-19T03:05:43.337Z,0
2017-08-19T03:06:44.763Z,0
2017-08-19T03:07:46.186Z,0
2017-08-19T03:08:47.611Z,0
2017-08-19T03:09:49.037Z,0
2017-08-19T03:10:50.462Z,0
2017-08-19T03:11:51.887Z,0
2017-08-19T03:12:53.312Z,0
2017-08-19T03:13:54.738Z,0
2017-08-19T03:14:56.168Z,0
2017-08-19T03:15:57.590Z,0
2017-08-19T03:16:59.012Z,0
2017-08-19T03:18:00.436Z,0
2017-08-19T03:19:01.861Z,0
2017-08-19T03:20:03.286Z,0
2017-08-19T03:21:04.708Z,0
2017-08-19T03:22:06.133Z,0
2017-08-19T03:23:07.579Z,0
2017-08-19T03:24:09.002Z,0
2017-08-19T03:25:10.430Z,0
2017-08-19T03:26:11.855Z,0
2017-08-19T03:27:13.281Z,0
2017-08-19T03:28:14.706Z,0
2017-08-19T03:29:16.133Z,0
2017-08-19T03:30:17.556Z,0
2017-08-19T03:31:18.978Z,0
2017-08-19T03:32:20.406Z,0
2017-08-19T03:33:21.829Z,0
2017-08-19T03:34:23.251Z,0
2017-08-19T03:35:24.679Z,0
2017-08-19T03:36:26.102Z,0
2017-08-19T03:37:27.528Z,0
2017-08-19T03:38:28.951Z,0
2017-08-19T03:39:30.376Z,0
2017-08-19T03:40:31.802Z,0
2017-08-19T03:41:33.226Z,0
2017-08-19T03:42:34.650Z,0
2017-08-19T03:43:36.077Z,0
2017-08-19T03:44:37.501Z,0
2017-08-19T03:45:38.925Z,0
2017-08-19T03:46:40.354Z,0
2017-08-19T03:47:41.780Z,0
2017-08-19T03:48:43.219Z,0
2017-08-19T03:49:44.640Z,0
2017-08-19T03:50:46.065Z,0
2017-08-19T03:51:47.490Z,0
2017-08-19T03:52:48.917Z,0
2017-08-19T03:53:50.344Z,0
2017-08-19T03:54:51.766Z,0
2017-08-19T03:55:53.188Z,0
2017-08-19T03:56:54.613Z,0
2017-08-19T03:57:56.039Z,0
2017-08-19T03:58:57.464Z,0
2017-08-19T03:59:58.889Z,0
2017-08-19T04:01:00.312Z,0
2017-08-19T04:02:01.748Z,0
2017-08-19T04:03:03.175Z,0
2017-08-19T04:04:04.598Z,0
2017-08-19T04:05:06.023Z,0
2017-08-19T04:06:07.451Z,0
2017-08-19T04:07:08.879Z,0
2017-08-19T04:08:10.305Z,0
2017-08-19T04:09:11.730Z,0
2017-08-19T04:10:13.153Z,0
2017-08-19T04:11:14.577Z,0
2017-08-19T04:12:16.003Z,0
2017-08-19T04:13:17.427Z,0
2017-08-19T04:14:18.850Z,0
2017-08-19T04:15:20.280Z,0
2017-08-19T04:16:21.700Z,0
2017-08-19T04:17:23.123Z,0
2017-08-19T04:18:24.550Z,0
2017-08-19T04:19:25.974Z,0
2017-08-19T04:20:27.395Z,0
2017-08-19T04:21:28.821Z,0
2017-08-19T04:22:30.245Z,0
2017-08-19T04:23:31.670Z,0
2017-08-19T04:24:33.093Z,0
2017-08-19T04:25:34.522Z,4
2017-08-19T04:26:35.944Z,4
2017-08-19T04:27:37.372Z,4
2017-08-19T04:28:38.795Z,4
2017-08-19T04:29:40.221Z,4
2017-08-19T04:30:41.645Z,4
2017-08-19T04:31:43.072Z,4
2017-08-19T04:32:44.496Z,4
2017-08-19T04:33:45.920Z,4
2017-08-19T04:34:47.345Z,4
2017-08-19T04:35:48.769Z,4
2017-08-19T04:36:50.194Z,8
2017-08-19T04:37:51.617Z,8
2017-08-19T04:38:53.043Z,8
2017-08-19T04:39:54.467Z,8
2017-08-19T04:40:55.890Z,8
2017-08-19T04:41:57.315Z,8
2017-08-19T04:42:58.739Z,8
2017-08-19T04:44:00.158Z,12
2017-08-19T04:45:01.588Z,12
2017-08-19T04:46:03.012Z,8
2017-08-19T04:47:04.437Z,12
2017-08-19T04:48:05.863Z,12
2017-08-19T04:49:07.290Z,12
2017-08-19T04:50:08.715Z,12
2017-08-19T04:51:10.140Z,16
2017-08-19T04:52:11.569Z,16
2017-08-19T04:53:12.993Z,16
2017-08-19T04:54:14.415Z,16
2017-08-19T04:55:15.843Z,16
2017-08-19T04:56:17.268Z,16
2017-08-19T04:57:18.692Z,16
2017-08-19T04:58:20.116Z,16
2017-08-19T04:59:21.544Z,20
2017-08-19T05:00:22.968Z,20
2017-08-19T05:01:24.388Z,20
2017-08-19T05:02:25.816Z,20
2017-08-19T05:03:27.245Z,20
2017-08-19T05:04:28.670Z,20
2017-08-19T05:05:30.094Z,20
2017-08-19T05:06:31.523Z,20
2017-08-19T05:07:32.950Z,20
2017-08-19T05:08:34.374Z,24
2017-08-19T05:09:35.799Z,24
2017-08-19T05:10:37.225Z,24
2017-08-19T05:11:38.649Z,24
2017-08-19T05:12:40.076Z,28
2017-08-19T05:13:41.502Z,24
2017-08-19T05:14:42.928Z,24
2017-08-19T05:15:44.356Z,24
2017-08-19T05:16:45.779Z,24
2017-08-19T05:17:47.205Z,28
2017-08-19T05:18:48.631Z,28
2017-08-19T05:19:50.055Z,28
2017-08-19T05:20:51.485Z,28
2017-08-19T05:21:52.909Z,28
2017-08-19T05:22:54.336Z,32
2017-08-19T05:23:55.760Z,28
2017-08-19T05:24:57.184Z,28
2017-08-19T05:25:58.610Z,28
2017-08-19T05:27:00.033Z,28
2017-08-19T05:28:01.508Z,32
2017-08-19T05:29:02.934Z,32
2017-08-19T05:30:04.356Z,32
2017-08-19T05:31:05.787Z,32
2017-08-19T05:32:07.207Z,36
2017-08-19T05:33:08.631Z,32
2017-08-19T05:34:10.059Z,32
2017-08-19T05:35:11.484Z,32
2017-08-19T05:36:12.908Z,32
2017-08-19T05:37:14.334Z,36
2017-08-19T05:38:15.759Z,36
2017-08-19T05:39:17.188Z,36
2017-08-19T05:40:18.610Z,32
2017-08-19T05:41:20.038Z,36
2017-08-19T05:42:21.464Z,36
2017-08-19T05:43:22.887Z,36
2017-08-19T05:44:24.314Z,36
2017-08-19T05:45:25.739Z,40
2017-08-19T05:46:27.165Z,40
2017-08-19T05:47:28.590Z,40
2017-08-19T05:48:30.017Z,40
2017-08-19T05:49:31.441Z,36
2017-08-19T05:50:32.869Z,40
2017-08-19T05:51:34.293Z,40
2017-08-19T05:52:35.722Z,40
2017-08-19T05:53:37.145Z,40
2017-08-19T05:54:38.569Z,44
2017-08-19T05:55:39.997Z,44
2017-08-19T05:56:41.420Z,40
2017-08-19T05:57:42.846Z,44
2017-08-19T05:58:44.271Z,44
2017-08-19T05:59:45.698Z,44
2017-08-19T06:00:47.124Z,44
2017-08-19T06:01:48.549Z,44
2017-08-19T06:02:49.974Z,36
2017-08-19T06:03:51.398Z,44
2017-08-19T06:04:52.824Z,44
2017-08-19T06:05:54.252Z,44
2017-08-19T06:06:55.681Z,44
2017-08-19T06:07:57.105Z,48
2017-08-19T06:08:58.530Z,48
2017-08-19T06:09:59.954Z,44
2017-08-19T06:11:01.380Z,48
2017-08-19T06:12:02.806Z,48
2017-08-19T06:13:04.228Z,48
2017-08-19T06:14:05.656Z,48
2017-08-19T06:15:07.080Z,52
2017-08-19T06:16:08.500Z,52
2017-08-19T06:17:09.929Z,48
2017-08-19T06:18:11.356Z,52
2017-08-19T06:19:12.783Z,52
2017-08-19T06:20:14.209Z,52
2017-08-19T06:21:15.637Z,52
2017-08-19T06:22:17.061Z,56
2017-08-19T06:23:18.490Z,52
2017-08-19T06:24:19.913Z,52
2017-08-19T06:25:21.338Z,56
2017-08-19T06:26:22.764Z,56
2017-08-19T06:27:24.189Z,56
2017-08-19T06:28:25.619Z,56
2017-08-19T06:29:27.042Z,56
2017-08-19T06:30:28.470Z,56
2017-08-19T06:31:29.891Z,60
2017-08-19T06:32:31.317Z,60
2017-08-19T06:33:32.743Z,60
2017-08-19T06:34:34.166Z,60
2017-08-19T06:35:35.594Z,56
2017-08-19T06:36:37.018Z,56
2017-08-19T06:37:38.442Z,60
2017-08-19T06:38:39.869Z,60
2017-08-19T06:39:41.296Z,60
2017-08-19T06:40:42.722Z,64
2017-08-19T06:41:44.146Z,64
2017-08-19T06:42:45.572Z,68
2017-08-19T06:43:47.000Z,68
2017-08-19T06:44:48.424Z,72
2017-08-19T06:45:49.855Z,80
2017-08-19T06:46:51.277Z,80
2017-08-19T06:47:52.701Z,76
2017-08-19T06:48:54.126Z,72
2017-08-19T06:49:55.562Z,76
2017-08-19T06:50:56.987Z,88
2017-08-19T06:51:58.411Z,68
2017-08-19T06:52:59.838Z,60
2017-08-19T06:54:01.326Z,64
2017-08-19T06:55:02.749Z,48
2017-08-19T06:56:04.174Z,44
2017-08-19T06:57:05.600Z,56
2017-08-19T06:58:07.027Z,56
2017-08-19T06:59:08.453Z,68
2017-08-19T07:00:09.877Z,72
2017-08-19T07:01:11.302Z,72
2017-08-19T07:02:12.730Z,76
2017-08-19T07:03:14.154Z,72
2017-08-19T07:04:15.581Z,72
2017-08-19T07:05:17.006Z,72
2017-08-19T07:06:18.431Z,72
2017-08-19T07:07:19.855Z,72
2017-08-19T07:08:21.282Z,72
2017-08-19T07:09:22.707Z,76
2017-08-19T07:10:24.133Z,76
2017-08-19T07:11:25.557Z,80
2017-08-19T07:12:26.981Z,80
2017-08-19T07:13:28.410Z,80
2017-08-19T07:14:29.835Z,80
2017-08-19T07:15:31.260Z,72
2017-08-19T07:16:32.685Z,84
2017-08-19T07:17:34.111Z,84
2017-08-19T07:18:35.540Z,92
2017-08-19T07:19:36.963Z,80
2017-08-19T07:20:38.390Z,100
2017-08-19T07:21:39.837Z,100
2017-08-19T07:22:41.262Z,88
2017-08-19T07:23:42.689Z,96
2017-08-19T07:24:44.114Z,84
2017-08-19T07:25:45.538Z,72
2017-08-19T07:26:46.964Z,68
2017-08-19T07:27:48.389Z,68
2017-08-19T07:28:49.815Z,72
2017-08-19T07:29:51.240Z,68
2017-08-19T07:30:52.675Z,68
2017-08-19T07:31:54.102Z,72
2017-08-19T07:32:55.526Z,72
2017-08-19T07:33:56.955Z,76
2017-08-19T07:34:58.379Z,80
2017-08-19T07:35:59.803Z,84
2017-08-19T07:37:01.229Z,76
2017-08-19T07:38:02.655Z,76
2017-08-19T07:39:04.090Z,76
2017-08-19T07:40:05.507Z,76
2017-08-19T07:41:06.932Z,72
2017-08-19T07:42:08.364Z,76
2017-08-19T07:43:09.785Z,96
2017-08-19T07:44:11.217Z,84
2017-08-19T07:45:12.640Z,80
2017-08-19T07:46:14.067Z,80
2017-08-19T07:47:15.495Z,80
2017-08-19T07:48:16.922Z,84
2017-08-19T07:49:18.350Z,88
2017-08-19T07:50:19.776Z,84
2017-08-19T07:51:21.206Z,84
2017-08-19T07:52:22.633Z,76
2017-08-19T07:53:24.060Z,76
2017-08-19T07:54:25.486Z,88
2017-08-19T07:55:26.912Z,92
2017-08-19T07:56:28.337Z,96
2017-08-19T07:57:29.765Z,104
2017-08-19T07:58:31.193Z,124
2017-08-19T07:59:32.619Z,112
2017-08-19T08:00:34.047Z,96
2017-08-19T08:01:35.473Z,92
2017-08-19T08:02:36.901Z,72
2017-08-19T08:03:38.326Z,64
2017-08-19T08:04:39.748Z,64
2017-08-19T08:05:41.196Z,60
2017-08-19T08:06:42.602Z,64
2017-08-19T08:07:44.027Z,76
2017-08-19T08:08:45.452Z,96
2017-08-19T08:09:46.895Z,68
2017-08-19T08:10:48.320Z,96
2017-08-19T08:11:49.746Z,92
2017-08-19T08:12:51.173Z,92
2017-08-19T08:13:52.597Z,88
2017-08-19T08:14:54.022Z,88
2017-08-19T08:15:55.451Z,92
2017-08-19T08:16:56.877Z,88
2017-08-19T08:17:58.304Z,88
2017-08-19T08:18:59.752Z,88
2017-08-19T08:20:01.170Z,88
2017-08-19T08:21:02.600Z,88
2017-08-19T08:22:04.033Z,92
2017-08-19T08:23:05.461Z,92
2017-08-19T08:24:06.887Z,92
2017-08-19T08:25:08.317Z,96
2017-08-19T08:26:09.745Z,96
2017-08-19T08:27:11.172Z,100
2017-08-19T08:28:12.597Z,88
2017-08-19T08:29:14.022Z,112
2017-08-19T08:30:15.452Z,104
2017-08-19T08:31:16.878Z,128
2017-08-19T08:32:18.307Z,128
2017-08-19T08:33:19.733Z,140
2017-08-19T08:34:21.164Z,152
2017-08-19T08:35:22.590Z,160
2017-08-19T08:36:24.018Z,132
2017-08-19T08:37:25.444Z,136
2017-08-19T08:38:26.880Z,148
2017-08-19T08:39:28.298Z,160
2017-08-19T08:40:29.725Z,172
2017-08-19T08:41:31.156Z,172
2017-08-19T08:42:32.583Z,168
2017-08-19T08:43:34.009Z,168
2017-08-19T08:44:35.436Z,164
2017-08-19T08:45:36.863Z,176
2017-08-19T08:46:38.292Z,164
2017-08-19T08:47:39.720Z,172
2017-08-19T08:48:41.146Z,152
2017-08-19T08:49:42.575Z,156
2017-08-19T08:50:44.005Z,152
2017-08-19T08:51:45.431Z,144
2017-08-19T08:52:46.860Z,120
2017-08-19T08:53:48.284Z,108
2017-08-19T08:54:49.714Z,116
2017-08-19T08:55:51.156Z,128
2017-08-19T08:56:52.582Z,156
2017-08-19T08:57:54.012Z,164
2017-08-19T08:58:55.438Z,160
2017-08-19T08:59:56.868Z,172
2017-08-19T09:00:58.293Z,184
2017-08-19T09:01:59.724Z,208
2017-08-19T09:03:01.152Z,196
2017-08-19T09:04:02.582Z,192
2017-08-19T09:05:04.007Z,168
2017-08-19T09:06:05.432Z,164
2017-08-19T09:07:06.863Z,144
2017-08-19T09:08:08.290Z,104
2017-08-19T09:09:09.720Z,100
2017-08-19T09:10:11.147Z,96
2017-08-19T09:11:12.574Z,128
2017-08-19T09:12:14.004Z,152
2017-08-19T09:13:15.431Z,144
2017-08-19T09:14:16.857Z,128
2017-08-19T09:15:18.284Z,116
2017-08-19T09:16:19.713Z,116
2017-08-19T09:17:21.144Z,132
2017-08-19T09:18:22.584Z,172
2017-08-19T09:19:24.021Z,148
2017-08-19T09:20:25.442Z,152
2017-08-19T09:21:26.868Z,140
2017-08-19T09:22:28.297Z,128
2017-08-19T09:23:29.723Z,132
2017-08-19T09:24:31.152Z,132
2017-08-19T09:25:32.581Z,160
2017-08-19T09:26:34.008Z,164
2017-08-19T09:27:35.435Z,180
2017-08-19T09:28:36.861Z,200
2017-08-19T09:29:38.288Z,220
2017-08-19T09:30:39.720Z,216
2017-08-19T09:31:41.143Z,184
2017-08-19T09:32:42.577Z,132
2017-08-19T09:33:44.006Z,104
2017-08-19T09:34:45.436Z,104
2017-08-19T09:35:46.864Z,112
2017-08-19T09:36:48.291Z,120
2017-08-19T09:37:49.718Z,144
2017-08-19T09:38:51.148Z,168
2017-08-19T09:39:52.572Z,144
2017-08-19T09:40:53.999Z,120
2017-08-19T09:41:55.428Z,168
2017-08-19T09:42:56.871Z,140
2017-08-19T09:43:58.297Z,96
2017-08-19T09:44:59.725Z,120
2017-08-19T09:46:01.162Z,96
2017-08-19T09:47:02.588Z,104
2017-08-19T09:48:04.010Z,108
2017-08-19T09:49:05.440Z,144
2017-08-19T09:50:06.868Z,136
2017-08-19T09:51:08.296Z,172
2017-08-19T09:52:09.722Z,180
2017-08-19T09:53:11.149Z,184
2017-08-19T09:54:12.576Z,160
2017-08-19T09:55:14.014Z,176
2017-08-19T09:56:15.439Z,152
2017-08-19T09:57:16.869Z,112
2017-08-19T09:58:18.298Z,120
2017-08-19T09:59:19.726Z,132
2017-08-19T10:00:21.152Z,164
2017-08-19T10:01:22.580Z,184
2017-08-19T10:02:24.009Z,148
2017-08-19T10:03:25.435Z,180
2017-08-19T10:04:26.875Z,196
2017-08-19T10:05:28.292Z,244
2017-08-19T10:06:29.726Z,232
2017-08-19T10:07:31.149Z,284
2017-08-19T10:08:32.576Z,276
2017-08-19T10:09:34.004Z,248
2017-08-19T10:10:35.429Z,208
2017-08-19T10:11:36.861Z,236
2017-08-19T10:12:38.287Z,256
2017-08-19T10:13:39.716Z,228
2017-08-19T10:14:41.144Z,180
2017-08-19T10:15:42.572Z,176
2017-08-19T10:16:44.004Z,176
2017-08-19T10:17:45.430Z,208
2017-08-19T10:18:46.871Z,224
2017-08-19T10:19:48.302Z,176
2017-08-19T10:20:49.731Z,168
2017-08-19T10:21:51.187Z,188
2017-08-19T10:22:52.613Z,232
2017-08-19T10:23:54.037Z,228
2017-08-19T10:24:55.469Z,200
2017-08-19T10:25:56.896Z,152
2017-08-19T10:26:58.325Z,152
2017-08-19T10:27:59.768Z,104
2017-08-19T10:29:01.196Z,108
2017-08-19T10:30:02.625Z,104
2017-08-19T10:31:04.054Z,112
2017-08-19T10:32:05.481Z,164
2017-08-19T10:33:06.912Z,180
2017-08-19T10:34:08.340Z,204
2017-08-19T10:35:09.770Z,216
2017-08-19T10:36:11.195Z,216
2017-08-19T10:37:12.635Z,212
2017-08-19T10:38:14.063Z,184
2017-08-19T10:39:15.490Z,168
2017-08-19T10:40:16.918Z,176
2017-08-19T10:41:18.349Z,204
2017-08-19T10:42:19.777Z,208
2017-08-19T10:43:21.210Z,164
2017-08-19T10:44:22.634Z,180
2017-08-19T10:45:24.063Z,148
2017-08-19T10:46:25.492Z,108
2017-08-19T10:47:26.920Z,108
2017-08-19T10:48:28.349Z,152
2017-08-19T10:49:29.776Z,164
2017-08-19T10:50:31.206Z,180
2017-08-19T10:51:32.637Z,200
2017-08-19T10:52:34.072Z,232
2017-08-19T10:53:35.500Z,272
2017-08-19T10:54:36.933Z,276
2017-08-19T10:55:38.359Z,236
2017-08-19T10:56:39.789Z,272
2017-08-19T10:57:41.218Z,296
2017-08-19T10:58:42.647Z,300
2017-08-19T10:59:44.079Z,272
2017-08-19T11:00:45.508Z,244
2017-08-19T11:01:46.935Z,312
2017-08-19T11:02:48.366Z,300
2017-08-19T11:03:49.799Z,280
2017-08-19T11:04:51.228Z,236
2017-08-19T11:05:52.656Z,164
2017-08-19T11:06:54.087Z,124
2017-08-19T11:07:55.515Z,100
2017-08-19T11:08:56.944Z,92
2017-08-19T11:09:58.372Z,96
2017-08-19T11:10:59.802Z,124
2017-08-19T11:12:01.234Z,180
2017-08-19T11:13:02.661Z,152
2017-08-19T11:14:04.090Z,188
2017-08-19T11:15:05.522Z,228
2017-08-19T11:16:06.954Z,220
2017-08-19T11:17:08.403Z,228
2017-08-19T11:18:09.832Z,200
2017-08-19T11:19:11.262Z,152
2017-08-19T11:20:12.692Z,132
2017-08-19T11:21:14.119Z,148
2017-08-19T11:22:15.549Z,200
2017-08-19T11:23:16.982Z,244
2017-08-19T11:24:18.410Z,240
2017-08-19T11:25:19.839Z,224
2017-08-19T11:26:21.266Z,280
2017-08-19T11:27:22.698Z,240
2017-08-19T11:28:24.134Z,204
2017-08-19T11:29:25.562Z,168
2017-08-19T11:30:26.993Z,204
2017-08-19T11:31:28.422Z,244
2017-08-19T11:32:29.852Z,244
2017-08-19T11:33:31.287Z,228
2017-08-19T11:34:32.714Z,240
2017-08-19T11:35:34.148Z,240
2017-08-19T11:36:35.576Z,288
2017-08-19T11:37:37.012Z,360
2017-08-19T11:38:38.439Z,304
2017-08-19T11:39:39.912Z,332
2017-08-19T11:40:41.343Z,212
2017-08-19T11:41:42.768Z,196
2017-08-19T11:42:44.199Z,248
2017-08-19T11:43:45.627Z,196
2017-08-19T11:44:47.057Z,180
2017-08-19T11:45:48.486Z,176
2017-08-19T11:46:49.916Z,176
2017-08-19T11:47:51.344Z,180
2017-08-19T11:48:52.774Z,180
2017-08-19T11:49:54.205Z,184
2017-08-19T11:50:55.645Z,184
2017-08-19T11:51:57.072Z,176
2017-08-19T11:52:58.502Z,180
2017-08-19T11:53:59.931Z,180
2017-08-19T11:55:01.356Z,184
2017-08-19T11:56:02.788Z,144
2017-08-19T11:57:04.216Z,180
2017-08-19T11:58:05.646Z,180
2017-08-19T11:59:07.076Z,180
2017-08-19T12:00:08.506Z,180
2017-08-19T12:01:09.936Z,180
2017-08-19T12:02:11.365Z,180
2017-08-19T12:03:12.796Z,180
2017-08-19T12:04:14.225Z,180
2017-08-19T12:05:15.658Z,184
2017-08-19T12:06:17.086Z,184
2017-08-19T12:07:18.514Z,188
2017-08-19T12:08:19.948Z,188
2017-08-19T12:09:21.383Z,192
2017-08-19T12:10:22.817Z,196
2017-08-19T12:11:24.244Z,204
2017-08-19T12:12:25.675Z,220
2017-08-19T12:13:27.099Z,248
2017-08-19T12:14:28.532Z,272
2017-08-19T12:15:29.978Z,244
2017-08-19T12:16:31.427Z,228
2017-08-19T12:17:32.840Z,212
2017-08-19T12:18:34.274Z,212
2017-08-19T12:19:35.701Z,216
2017-08-19T12:20:37.343Z,224
2017-08-19T12:21:38.783Z,232
2017-08-19T12:22:40.215Z,232
2017-08-19T12:23:41.711Z,236
2017-08-19T12:24:43.138Z,244
2017-08-19T12:25:44.568Z,240
2017-08-19T12:26:45.997Z,244
2017-08-19T12:27:47.428Z,248
2017-08-19T12:28:48.908Z,244
2017-08-19T12:29:50.354Z,244
2017-08-19T12:30:51.860Z,248
2017-08-19T12:31:53.287Z,268
2017-08-19T12:32:54.862Z,284
2017-08-19T12:33:56.302Z,264
2017-08-19T12:34:57.803Z,256
2017-08-19T12:35:59.236Z,252
2017-08-19T12:37:00.684Z,252
2017-08-19T12:38:02.104Z,252
2017-08-19T12:39:03.533Z,256
2017-08-19T12:40:04.965Z,260
2017-08-19T12:41:06.394Z,268
2017-08-19T12:42:07.823Z,276
2017-08-19T12:43:09.253Z,280
2017-08-19T12:44:10.684Z,272
2017-08-19T12:45:12.137Z,268
2017-08-19T12:46:13.566Z,272
2017-08-19T12:47:14.998Z,276
2017-08-19T12:48:16.437Z,292
2017-08-19T12:49:17.867Z,276
2017-08-19T12:50:19.296Z,272
2017-08-19T12:51:20.726Z,276
2017-08-19T12:52:22.152Z,280
2017-08-19T12:53:23.637Z,276
2017-08-19T12:54:25.059Z,280
2017-08-19T12:55:26.490Z,280
2017-08-19T12:56:27.917Z,284
2017-08-19T12:57:29.366Z,312
2017-08-19T12:58:30.796Z,364
2017-08-19T12:59:32.227Z,400
2017-08-19T13:00:33.656Z,420
2017-08-19T13:01:35.088Z,344
2017-08-19T13:02:36.529Z,348
2017-08-19T13:03:37.958Z,372
2017-08-19T13:04:39.398Z,396
2017-08-19T13:05:40.820Z,496
2017-08-19T13:06:42.344Z,528
2017-08-19T13:07:43.775Z,328
2017-08-19T13:08:45.203Z,312
2017-08-19T13:09:46.638Z,344
2017-08-19T13:10:48.069Z,312
2017-08-19T13:11:49.500Z,384
2017-08-19T13:12:50.927Z,632
2017-08-19T13:13:52.360Z,588
2017-08-19T13:14:53.789Z,508
2017-08-19T13:15:55.234Z,520
2017-08-19T13:16:56.662Z,308
2017-08-19T13:17:58.092Z,308
2017-08-19T13:18:59.524Z,312
2017-08-19T13:20:00.968Z,420
2017-08-19T13:21:02.400Z,588
2017-08-19T13:22:03.829Z,580
2017-08-19T13:23:05.260Z,564
2017-08-19T13:24:06.688Z,292
2017-08-19T13:25:08.121Z,588
2017-08-19T13:26:09.549Z,552
2017-08-19T13:27:10.983Z,288
2017-08-19T13:28:12.416Z,276
2017-08-19T13:29:13.848Z,400
2017-08-19T13:30:15.277Z,456
2017-08-19T13:31:16.707Z,268
2017-08-19T13:32:18.139Z,300
2017-08-19T13:33:19.567Z,344
2017-08-19T13:34:21.004Z,396
2017-08-19T13:35:22.433Z,588
2017-08-19T13:36:23.865Z,768
2017-08-19T13:37:25.296Z,548
2017-08-19T13:38:26.729Z,1332
2017-08-19T13:39:28.166Z,1388
2017-08-19T13:40:29.596Z,1336
2017-08-19T13:41:31.028Z,456
2017-08-19T13:42:32.456Z,460
2017-08-19T13:43:33.892Z,1480
2017-08-19T13:44:35.327Z,1812
2017-08-19T13:45:36.759Z,1856
2017-08-19T13:46:38.193Z,1652
2017-08-19T13:47:39.627Z,1736
2017-08-19T13:48:41.071Z,500
2017-08-19T13:49:42.531Z,388
2017-08-19T13:50:43.960Z,476
2017-08-19T13:51:45.391Z,912
2017-08-19T13:52:46.822Z,828
2017-08-19T13:53:48.254Z,308
2017-08-19T13:54:49.683Z,928
2017-08-19T13:55:51.115Z,716
2017-08-19T13:56:52.549Z,1980
2017-08-19T13:57:53.982Z,2160
2017-08-19T13:58:55.431Z,2116
2017-08-19T13:59:56.863Z,1672
2017-08-19T14:00:58.302Z,940
2017-08-19T14:01:59.734Z,2116
2017-08-19T14:03:01.175Z,2036
2017-08-19T14:04:02.607Z,2052
2017-08-19T14:05:04.039Z,392
2017-08-19T14:06:05.474Z,2168
2017-08-19T14:07:06.905Z,364
2017-08-19T14:08:08.336Z,348
2017-08-19T14:09:09.769Z,344
2017-08-19T14:10:11.202Z,264
2017-08-19T14:11:12.641Z,236
2017-08-19T14:12:14.069Z,180
2017-08-19T14:13:15.504Z,140
2017-08-19T14:14:16.945Z,112
2017-08-19T14:15:18.363Z,92
2017-08-19T14:16:19.797Z,84
2017-08-19T14:17:21.222Z,76
2017-08-19T14:18:22.657Z,68
2017-08-19T14:19:24.084Z,68
2017-08-19T14:20:25.516Z,68
2017-08-19T14:21:26.947Z,76
2017-08-19T14:22:28.377Z,92
2017-08-19T14:23:29.808Z,156
2017-08-19T14:24:31.239Z,260
2017-08-19T14:25:32.671Z,300
2017-08-19T14:26:34.103Z,268
2017-08-19T14:27:35.895Z,228
2017-08-19T14:28:37.330Z,184
2017-08-19T14:29:38.761Z,132
2017-08-19T14:30:40.190Z,96
2017-08-19T14:31:41.619Z,88
2017-08-19T14:32:43.051Z,72